createdAt,value
2016-08-05T00:00:39.104Z,737.72
2016-08-05T00:01:39.095Z,737.63
2016-08-05T00:02:39.085Z,737.76
2016-08-05T00:03:39.078Z,737.72
2016-08-05T00:04:39.074Z,737.78
2016-08-05T00:05:39.064Z,737.81
2016-08-05T00:06:39.054Z,737.8
2016-08-05T00:07:39.038Z,737.82
2016-08-05T00:08:39.035Z,737.78
2016-08-05T00:09:39.026Z,737.86
2016-08-05T00:10:39.015Z,737.74
2016-08-05T00:11:38.999Z,737.74
2016-08-05T00:12:38.991Z,737.64
2016-08-05T00:13:38.986Z,737.69
2016-08-05T00:14:38.976Z,737.7
2016-08-05T00:15:38.960Z,737.74
2016-08-05T00:16:38.957Z,737.8
2016-08-05T00:17:38.947Z,737.71
2016-08-05T00:18:38.930Z,737.71
2016-08-05T00:19:38.921Z,737.69
2016-08-05T00:20:38.911Z,737.69
2016-08-05T00:21:38.901Z,737.69
2016-08-05T00:22:38.891Z,737.73
2016-08-05T00:23:38.881Z,737.68
2016-08-05T00:24:38.870Z,737.66
2016-08-05T00:25:38.868Z,737.6
2016-08-05T00:26:38.851Z,737.65
2016-08-05T00:27:38.842Z,737.6
2016-08-05T00:28:38.831Z,737.54
2016-08-05T00:29:38.821Z,737.55
2016-08-05T00:30:38.819Z,737.59
2016-08-05T00:31:38.803Z,737.64
2016-08-05T00:32:38.799Z,737.55
2016-08-05T00:33:38.789Z,737.53
2016-08-05T00:34:38.773Z,737.5
2016-08-05T00:35:38.779Z,737.51
2016-08-05T00:36:38.759Z,737.45
2016-08-05T00:37:38.743Z,737.45
2016-08-05T00:38:38.739Z,737.41
2016-08-05T00:39:38.729Z,737.43
2016-08-05T00:40:38.713Z,737.51
2016-08-05T00:41:38.702Z,737.52
2016-08-05T00:42:38.699Z,737.54
2016-08-05T00:43:38.682Z,737.5
2016-08-05T00:44:38.673Z,737.53
2016-08-05T00:45:38.663Z,737.57
2016-08-05T00:46:38.652Z,737.56
2016-08-05T00:47:38.643Z,737.55
2016-08-05T00:48:38.644Z,737.58
2016-08-05T00:49:38.623Z,737.57
2016-08-05T00:50:38.626Z,737.56
2016-08-05T00:51:38.605Z,737.52
2016-08-05T00:52:38.601Z,737.45
2016-08-05T00:53:38.591Z,737.41
2016-08-05T00:54:38.575Z,737.38
2016-08-05T00:55:38.565Z,737.27
2016-08-05T00:56:38.562Z,737.25
2016-08-05T00:57:38.544Z,737.26
2016-08-05T00:58:38.542Z,737.25
2016-08-05T00:59:38.527Z,737.21
2016-08-05T01:00:38.517Z,737.22
2016-08-05T01:01:38.517Z,737.22
2016-08-05T01:02:38.498Z,737.19
2016-08-05T01:03:38.488Z,737.17
2016-08-05T01:04:38.485Z,737.17
2016-08-05T01:05:38.470Z,737.1
2016-08-05T01:06:38.461Z,737.08
2016-08-05T01:07:38.458Z,737.04
2016-08-05T01:08:38.443Z,736.97
2016-08-05T01:09:38.438Z,737
2016-08-05T01:10:38.432Z,737.05
2016-08-05T01:11:38.414Z,736.99
2016-08-05T01:12:38.404Z,736.95
2016-08-05T01:13:38.402Z,736.95
2016-08-05T01:14:38.392Z,736.95
2016-08-05T01:15:38.375Z,736.97
2016-08-05T01:16:38.373Z,736.91
2016-08-05T01:17:38.363Z,736.9
2016-08-05T01:18:38.355Z,736.92
2016-08-05T01:19:38.338Z,736.88
2016-08-05T01:20:38.334Z,736.86
2016-08-05T01:21:38.325Z,736.85
2016-08-05T01:22:38.308Z,736.86
2016-08-05T01:23:38.299Z,736.87
2016-08-05T01:24:38.289Z,736.87
2016-08-05T01:25:38.281Z,736.73
2016-08-05T01:26:38.276Z,736.88
2016-08-05T01:27:38.268Z,736.94
2016-08-05T01:28:38.251Z,736.9
2016-08-05T01:29:38.247Z,736.87
2016-08-05T01:30:38.238Z,736.85
2016-08-05T01:31:38.220Z,736.81
2016-08-05T01:32:38.217Z,736.86
2016-08-05T01:33:38.202Z,736.85
2016-08-05T01:34:38.190Z,736.82
2016-08-05T01:35:38.186Z,736.81
2016-08-05T01:36:38.170Z,736.87
2016-08-05T01:37:38.160Z,736.77
2016-08-05T01:38:38.156Z,736.75
2016-08-05T01:39:38.140Z,736.71
2016-08-05T01:40:38.129Z,736.78
2016-08-05T01:41:38.119Z,736.75
2016-08-05T01:42:38.116Z,736.75
2016-08-05T01:43:38.100Z,736.74
2016-08-05T01:44:38.097Z,736.71
2016-08-05T01:45:38.080Z,736.68
2016-08-05T01:46:38.070Z,736.66
2016-08-05T01:47:38.065Z,736.67
2016-08-05T01:48:38.056Z,736.62
2016-08-05T01:49:38.039Z,736.6
2016-08-05T01:50:38.035Z,736.61
2016-08-05T01:51:38.017Z,736.64
2016-08-05T01:52:38.007Z,736.7
2016-08-05T01:53:38.005Z,736.7
2016-08-05T01:54:37.988Z,736.69
2016-08-05T01:55:37.985Z,736.68
2016-08-05T01:56:37.975Z,736.66
2016-08-05T01:57:37.965Z,736.69
2016-08-05T01:58:37.955Z,736.72
2016-08-05T01:59:37.938Z,736.61
2016-08-05T02:00:37.934Z,736.71
2016-08-05T02:01:37.926Z,736.66
2016-08-05T02:02:37.915Z,736.71
2016-08-05T02:03:37.903Z,736.75
2016-08-05T02:04:37.887Z,736.69
2016-08-05T02:05:37.877Z,736.72
2016-08-05T02:06:37.866Z,736.71
2016-08-05T02:07:37.863Z,736.84
2016-08-05T02:08:37.852Z,736.86
2016-08-05T02:09:37.835Z,736.78
2016-08-05T02:10:37.830Z,736.66
2016-08-05T02:11:37.820Z,736.68
2016-08-05T02:12:37.808Z,736.73
2016-08-05T02:13:37.798Z,736.77
2016-08-05T02:14:37.778Z,736.81
2016-08-05T02:15:37.768Z,736.64
2016-08-05T02:16:37.762Z,736.61
2016-08-05T02:17:37.742Z,736.71
2016-08-05T02:18:37.738Z,736.52
2016-08-05T02:19:37.720Z,736.48
2016-08-05T02:20:37.707Z,736.42
2016-08-05T02:21:37.701Z,736.39
2016-08-05T02:22:37.681Z,736.33
2016-08-05T02:23:37.671Z,736.17
2016-08-05T02:24:37.665Z,736.01
2016-08-05T02:26:37.633Z,736.05
2016-08-05T02:27:37.626Z,736.07
2016-08-05T02:28:37.608Z,736.29
2016-08-05T02:29:37.595Z,736.19
2016-08-05T02:30:37.582Z,736.35
2016-08-05T02:31:37.576Z,736.48
2016-08-05T02:32:37.563Z,736.22
2016-08-05T02:33:37.544Z,736.46
2016-08-05T02:34:37.538Z,736.31
2016-08-05T02:35:37.519Z,736.27
2016-08-05T02:36:37.504Z,736.6
2016-08-05T02:37:37.500Z,736.48
2016-08-05T02:38:37.491Z,736.42
2016-08-05T02:39:37.467Z,736.46
2016-08-05T02:40:37.461Z,736.49
2016-08-05T02:41:37.443Z,736.48
2016-08-05T02:42:37.430Z,736.48
2016-08-05T02:43:37.422Z,736.37
2016-08-05T02:44:37.403Z,736.48
2016-08-05T02:45:37.399Z,736.27
2016-08-05T02:46:37.389Z,736.26
2016-08-05T02:47:37.371Z,736.22
2016-08-05T02:48:37.359Z,736.37
2016-08-05T02:49:37.339Z,736.34
2016-08-05T02:50:37.334Z,736.37
2016-08-05T02:51:37.321Z,736.54
2016-08-05T02:52:37.307Z,736.33
2016-08-05T02:53:37.296Z,736.36
2016-08-05T02:54:37.282Z,736.42
2016-08-05T02:56:37.256Z,736.45
2016-08-05T02:57:37.237Z,736.24
2016-08-05T02:58:37.231Z,736.33
2016-08-05T02:59:37.211Z,736.29
2016-08-05T03:00:37.206Z,736.33
2016-08-05T03:01:37.187Z,736.32
2016-08-05T03:02:37.179Z,736.31
2016-08-05T03:03:37.161Z,736.39
2016-08-05T03:04:37.155Z,736.3
2016-08-05T03:05:37.142Z,736.31
2016-08-05T03:06:37.121Z,736.35
2016-08-05T03:07:37.118Z,736.35
2016-08-05T03:08:37.105Z,736.33
2016-08-05T03:09:37.083Z,736.32
2016-08-05T03:11:37.058Z,736.38
2016-08-05T03:12:37.047Z,736.38
2016-08-05T03:13:37.033Z,736.3
2016-08-05T03:14:37.027Z,736.29
2016-08-05T03:15:37.015Z,736.27
2016-08-05T03:16:37.004Z,736.32
2016-08-05T03:17:36.985Z,736.34
2016-08-05T03:18:36.979Z,736.31
2016-08-05T03:19:36.959Z,736.36
2016-08-05T03:20:36.952Z,736.35
2016-08-05T03:21:36.933Z,736.37
2016-08-05T03:22:36.928Z,736.32
2016-08-05T03:23:36.914Z,736.41
2016-08-05T03:24:36.904Z,736.32
2016-08-05T03:26:36.879Z,736.34
2016-08-05T03:27:36.867Z,736.36
2016-08-05T03:28:36.849Z,736.31
2016-08-05T03:29:36.835Z,736.24
2016-08-05T03:30:36.831Z,736.18
2016-08-05T03:31:36.820Z,736.06
2016-08-05T03:32:36.806Z,736.12
2016-08-05T03:33:36.794Z,736.13
2016-08-05T03:34:36.781Z,736.05
2016-08-05T03:35:36.764Z,736.12
2016-08-05T03:36:36.751Z,736.08
2016-08-05T03:37:36.745Z,736.12
2016-08-05T03:38:36.735Z,736.11
2016-08-05T03:39:36.716Z,736.16
2016-08-05T03:41:36.699Z,736.02
2016-08-05T03:42:36.680Z,735.86
2016-08-05T03:43:36.667Z,735.94
2016-08-05T03:44:36.656Z,735.86
2016-08-05T03:45:36.646Z,735.74
2016-08-05T03:46:36.632Z,735.77
2016-08-05T03:47:36.619Z,735.69
2016-08-05T03:48:36.618Z,735.81
2016-08-05T03:49:36.603Z,735.81
2016-08-05T03:50:36.583Z,735.81
2016-08-05T03:51:36.573Z,735.95
2016-08-05T03:52:36.570Z,735.89
2016-08-05T03:53:36.549Z,735.97
2016-08-05T03:54:36.540Z,735.83
2016-08-05T03:56:36.514Z,736
2016-08-05T03:57:36.511Z,735.93
2016-08-05T03:58:36.499Z,735.9
2016-08-05T03:59:36.488Z,736.09
2016-08-05T04:00:36.476Z,735.96
2016-08-05T04:01:36.464Z,735.99
2016-08-05T04:02:36.452Z,736.08
2016-08-05T04:03:36.437Z,735.99
2016-08-05T04:04:36.428Z,736.01
2016-08-05T04:05:36.417Z,736.11
2016-08-05T04:06:36.405Z,736.24
2016-08-05T04:07:36.386Z,736.11
2016-08-05T04:08:36.383Z,736.21
2016-08-05T04:09:36.363Z,736.16
2016-08-05T04:11:36.339Z,736.16
2016-08-05T04:12:36.328Z,736.27
2016-08-05T04:13:36.317Z,736.31
2016-08-05T04:14:36.306Z,736.28
2016-08-05T04:15:36.293Z,736.3
2016-08-05T04:16:36.281Z,736.21
2016-08-05T04:17:36.272Z,736.19
2016-08-05T04:18:36.259Z,736.18
2016-08-05T04:19:36.258Z,736.24
2016-08-05T04:20:36.236Z,736.18
2016-08-05T04:21:36.225Z,736.19
2016-08-05T04:22:36.212Z,736.18
2016-08-05T04:23:36.202Z,736.23
2016-08-05T04:24:36.197Z,736.18
2016-08-05T04:25:36.179Z,736.17
2016-08-05T04:26:36.177Z,736.14
2016-08-05T04:27:36.162Z,736.25
2016-08-05T04:28:36.151Z,736.22
2016-08-05T04:29:36.131Z,736.08
2016-08-05T04:30:36.119Z,736.16
2016-08-05T04:31:36.117Z,736.19
2016-08-05T04:32:36.105Z,736.23
2016-08-05T04:33:36.086Z,736.2
2016-08-05T04:34:36.082Z,736.21
2016-08-05T04:35:36.067Z,736.25
2016-08-05T04:36:36.048Z,736.2
2016-08-05T04:37:36.044Z,736.26
2016-08-05T04:38:36.035Z,736.24
2016-08-05T04:39:36.020Z,736.26
2016-08-05T04:40:36.008Z,736.26
2016-08-05T04:41:35.989Z,736.26
2016-08-05T04:42:35.980Z,736.24
2016-08-05T04:43:35.968Z,736.24
2016-08-05T04:44:35.954Z,736.26
2016-08-05T04:45:35.943Z,736.21
2016-08-05T04:46:35.938Z,736.19
2016-08-05T04:47:35.925Z,736.18
2016-08-05T04:48:35.964Z,736.13
2016-08-05T04:49:35.902Z,736.13
2016-08-05T04:50:35.889Z,736.15
2016-08-05T04:51:35.879Z,736.11
2016-08-05T04:52:35.866Z,736.11
2016-08-05T04:53:35.846Z,736.09
2016-08-05T04:54:35.835Z,736.01
2016-08-05T04:55:35.829Z,736.02
2016-08-05T04:56:35.810Z,735.96
2016-08-05T04:57:35.804Z,736.02
2016-08-05T04:58:35.785Z,736.04
2016-08-05T04:59:35.779Z,736.04
2016-08-05T05:00:35.767Z,736.06
2016-08-05T05:01:35.756Z,735.98
2016-08-05T05:02:35.742Z,736.08
2016-08-05T05:03:35.730Z,736.04
2016-08-05T05:04:35.711Z,736.03
2016-08-05T05:05:35.699Z,736.04
2016-08-05T05:06:35.685Z,736.03
2016-08-05T05:07:35.674Z,736.06
2016-08-05T05:08:35.667Z,736.11
2016-08-05T05:09:35.654Z,736.04
2016-08-05T05:10:35.635Z,736.06
2016-08-05T05:11:35.623Z,736.04
2016-08-05T05:12:35.609Z,736.02
2016-08-05T05:13:35.605Z,735.95
2016-08-05T05:14:35.592Z,735.89
2016-08-05T05:15:35.579Z,735.9
2016-08-05T05:16:35.567Z,735.93
2016-08-05T05:17:35.554Z,735.94
2016-08-05T05:18:35.542Z,735.91
2016-08-05T05:19:35.530Z,735.87
2016-08-05T05:20:35.516Z,735.87
2016-08-05T05:21:35.498Z,735.9
2016-08-05T05:22:35.486Z,735.91
2016-08-05T05:23:35.485Z,735.85
2016-08-05T05:24:35.461Z,735.84
2016-08-05T05:25:35.455Z,735.89
2016-08-05T05:26:35.437Z,735.9
2016-08-05T05:27:35.433Z,735.84
2016-08-05T05:28:35.419Z,735.89
2016-08-05T05:29:35.401Z,735.85
2016-08-05T05:30:35.391Z,735.85
2016-08-05T05:31:35.384Z,735.88
2016-08-05T05:32:35.366Z,735.86
2016-08-05T05:33:35.362Z,735.88
2016-08-05T05:34:35.344Z,735.84
2016-08-05T05:35:35.332Z,735.82
2016-08-05T05:36:35.327Z,735.73
2016-08-05T05:37:35.316Z,735.75
2016-08-05T05:38:35.305Z,735.8
2016-08-05T05:39:35.288Z,735.81
2016-08-05T05:40:35.282Z,735.76
2016-08-05T05:41:35.272Z,735.81
2016-08-05T05:42:35.259Z,735.77
2016-08-05T05:43:35.240Z,735.8
2016-08-05T05:44:35.236Z,735.81
2016-08-05T05:45:35.226Z,735.81
2016-08-05T05:46:35.214Z,735.8
2016-08-05T05:47:35.196Z,735.82
2016-08-05T05:48:35.191Z,735.85
2016-08-05T05:49:35.181Z,735.82
2016-08-05T05:50:35.163Z,735.83
2016-08-05T05:51:35.158Z,735.79
2016-08-05T05:52:35.140Z,735.81
2016-08-05T05:53:35.128Z,735.82
2016-08-05T05:54:35.118Z,735.88
2016-08-05T05:55:35.114Z,735.85
2016-08-05T05:56:35.102Z,735.85
2016-08-05T05:57:35.084Z,735.9
2016-08-05T05:58:35.079Z,735.88
2016-08-05T05:59:35.062Z,735.89
2016-08-05T06:00:35.059Z,735.87
2016-08-05T06:01:35.039Z,735.91
2016-08-05T06:02:35.029Z,735.92
2016-08-05T06:03:35.017Z,735.92
2016-08-05T06:04:35.013Z,735.91
2016-08-05T06:05:35.002Z,735.9
2016-08-05T06:06:34.991Z,735.92
2016-08-05T06:07:34.980Z,735.91
2016-08-05T06:08:34.962Z,735.98
2016-08-05T06:09:34.958Z,735.96
2016-08-05T06:10:34.942Z,735.96
2016-08-05T06:11:34.935Z,735.98
2016-08-05T06:12:34.918Z,736.02
2016-08-05T06:13:34.907Z,736
2016-08-05T06:14:34.905Z,736.04
2016-08-05T06:15:34.886Z,736.12
2016-08-05T06:16:34.883Z,736.11
2016-08-05T06:17:34.871Z,736.14
2016-08-05T06:18:34.856Z,736.18
2016-08-05T06:19:34.844Z,736.19
2016-08-05T06:20:34.839Z,736.26
2016-08-05T06:21:34.829Z,736.25
2016-08-05T06:22:34.818Z,736.31
2016-08-05T06:23:34.802Z,736.42
2016-08-05T06:24:34.798Z,736.43
2016-08-05T06:25:34.780Z,736.38
2016-08-05T06:26:34.775Z,736.39
2016-08-05T06:27:34.759Z,736.36
2016-08-05T06:28:34.748Z,736.46
2016-08-05T06:29:34.745Z,736.4
2016-08-05T06:30:34.734Z,736.35
2016-08-05T06:31:34.715Z,736.49
2016-08-05T06:32:34.706Z,736.43
2016-08-05T06:33:34.695Z,736.32
2016-08-05T06:34:34.683Z,736.41
2016-08-05T06:35:34.678Z,736.52
2016-08-05T06:36:34.661Z,736.48
2016-08-05T06:37:34.656Z,736.5
2016-08-05T06:38:34.645Z,736.44
2016-08-05T06:39:34.634Z,736.36
2016-08-05T06:40:34.623Z,736.37
2016-08-05T06:41:34.610Z,736.36
2016-08-05T06:42:34.599Z,736.36
2016-08-05T06:43:34.581Z,736.37
2016-08-05T06:44:34.567Z,736.39
2016-08-05T06:45:34.557Z,736.29
2016-08-05T06:46:34.552Z,736.31
2016-08-05T06:47:34.534Z,736.29
2016-08-05T06:48:34.528Z,736.34
2016-08-05T06:49:34.516Z,736.33
2016-08-05T06:50:34.504Z,736.34
2016-08-05T06:51:34.487Z,736.36
2016-08-05T06:52:34.473Z,736.31
2016-08-05T06:53:34.469Z,736.26
2016-08-05T06:54:34.449Z,736.24
2016-08-05T06:55:34.450Z,736.24
2016-08-05T06:56:34.433Z,736.27
2016-08-05T06:57:34.421Z,736.31
2016-08-05T06:58:34.403Z,736.3
2016-08-05T06:59:34.390Z,736.34
2016-08-05T07:00:34.379Z,736.3
2016-08-05T07:01:34.367Z,736.34
2016-08-05T07:02:34.358Z,736.33
2016-08-05T07:03:34.346Z,736.38
2016-08-05T07:04:34.341Z,736.37
2016-08-05T07:05:34.330Z,736.35
2016-08-05T07:06:34.318Z,736.43
2016-08-05T07:07:34.306Z,736.43
2016-08-05T07:08:34.287Z,736.47
2016-08-05T07:09:34.283Z,736.39
2016-08-05T07:10:34.271Z,736.36
2016-08-05T07:11:34.261Z,736.39
2016-08-05T07:12:34.243Z,736.43
2016-08-05T07:13:34.237Z,736.44
2016-08-05T07:14:34.218Z,736.42
2016-08-05T07:15:34.207Z,736.41
2016-08-05T07:16:34.204Z,736.43
2016-08-05T07:17:34.195Z,736.41
2016-08-05T07:18:34.173Z,736.37
2016-08-05T07:19:34.164Z,736.22
2016-08-05T07:20:34.158Z,736.33
2016-08-05T07:21:34.147Z,736.3
2016-08-05T07:22:34.130Z,736.31
2016-08-05T07:23:34.124Z,736.34
2016-08-05T07:24:34.113Z,736.3
2016-08-05T07:25:34.102Z,736.32
2016-08-05T07:26:34.084Z,736.36
2016-08-05T07:27:34.080Z,736.41
2016-08-05T07:28:34.068Z,736.32
2016-08-05T07:29:34.057Z,736.37
2016-08-05T07:30:34.038Z,736.36
2016-08-05T07:31:34.035Z,736.37
2016-08-05T07:32:34.016Z,736.42
2016-08-05T07:33:34.005Z,736.48
2016-08-05T07:34:33.993Z,736.5
2016-08-05T07:35:33.983Z,736.49
2016-08-05T07:36:33.978Z,736.52
2016-08-05T07:37:33.967Z,736.49
2016-08-05T07:38:33.956Z,736.58
2016-08-05T07:39:33.940Z,736.56
2016-08-05T07:40:33.925Z,736.48
2016-08-05T07:41:33.914Z,736.46
2016-08-05T07:42:33.903Z,736.53
2016-08-05T07:43:33.890Z,736.53
2016-08-05T07:44:33.885Z,736.4
2016-08-05T07:45:33.868Z,736.38
2016-08-05T07:46:33.854Z,736.4
2016-08-05T07:47:33.843Z,736.27
2016-08-05T07:48:33.832Z,736.25
2016-08-05T07:49:33.819Z,736.27
2016-08-05T07:50:33.805Z,736.24
2016-08-05T07:51:33.794Z,736.22
2016-08-05T07:52:33.789Z,736.22
2016-08-05T07:53:33.778Z,736.19
2016-08-05T07:54:33.759Z,736.28
2016-08-05T07:55:33.747Z,736.16
2016-08-05T07:56:33.741Z,736.21
2016-08-05T07:57:33.727Z,736.32
2016-08-05T07:58:33.716Z,736.38
2016-08-05T07:59:33.703Z,736.51
2016-08-05T08:00:33.685Z,736.56
2016-08-05T08:01:33.677Z,736.62
2016-08-05T08:02:33.666Z,736.54
2016-08-05T08:03:33.654Z,736.74
2016-08-05T08:04:33.635Z,736.74
2016-08-05T08:05:33.623Z,736.81
2016-08-05T08:06:33.609Z,736.84
2016-08-05T08:07:33.605Z,736.75
2016-08-05T08:08:33.585Z,736.82
2016-08-05T08:09:33.573Z,736.7
2016-08-05T08:10:33.565Z,736.72
2016-08-05T08:11:33.555Z,736.75
2016-08-05T08:12:33.540Z,736.75
2016-08-05T08:13:33.531Z,736.75
2016-08-05T08:14:33.512Z,736.79
2016-08-05T08:15:33.501Z,736.78
2016-08-05T08:16:33.494Z,736.72
2016-08-05T08:17:33.483Z,736.72
2016-08-05T08:18:33.472Z,736.76
2016-08-05T08:19:33.453Z,736.71
2016-08-05T08:20:33.440Z,736.71
2016-08-05T08:21:33.430Z,736.71
2016-08-05T08:22:33.426Z,736.68
2016-08-05T08:23:33.408Z,736.58
2016-08-05T08:24:33.395Z,736.61
2016-08-05T08:25:33.383Z,736.63
2016-08-05T08:27:33.367Z,736.64
2016-08-05T08:28:33.350Z,736.57
2016-08-05T08:29:33.345Z,736.6
2016-08-05T08:30:33.333Z,736.59
2016-08-05T08:31:33.315Z,736.59
2016-08-05T08:32:33.311Z,736.63
2016-08-05T08:33:33.298Z,736.64
2016-08-05T08:34:33.286Z,736.64
2016-08-05T08:35:33.276Z,736.68
2016-08-05T08:36:33.257Z,736.63
2016-08-05T08:37:33.246Z,736.72
2016-08-05T08:38:33.240Z,736.72
2016-08-05T08:39:33.230Z,736.71
2016-08-05T08:40:33.218Z,736.75
2016-08-05T08:41:33.209Z,736.79
2016-08-05T08:42:33.195Z,736.77
2016-08-05T08:43:33.177Z,736.81
2016-08-05T08:44:33.165Z,736.81
2016-08-05T08:45:33.160Z,736.82
2016-08-05T08:46:33.150Z,736.83
2016-08-05T08:47:33.135Z,736.8
2016-08-05T08:48:33.127Z,736.83
2016-08-05T08:49:33.109Z,736.86
2016-08-05T08:50:33.099Z,736.9
2016-08-05T08:51:33.085Z,736.89
2016-08-05T08:52:33.081Z,736.82
2016-08-05T08:53:33.070Z,736.87
2016-08-05T08:54:33.060Z,736.93
2016-08-05T08:55:33.041Z,736.92
2016-08-05T08:56:33.028Z,736.94
2016-08-05T08:57:33.024Z,736.96
2016-08-05T08:58:33.013Z,736.96
2016-08-05T08:59:32.994Z,736.99
2016-08-05T09:00:32.990Z,737.09
2016-08-05T09:01:32.971Z,737.06
2016-08-05T09:02:32.961Z,737.04
2016-08-05T09:03:32.957Z,737.05
2016-08-05T09:04:32.943Z,737.04
2016-08-05T09:05:32.931Z,737.04
2016-08-05T09:06:32.921Z,737.04
2016-08-05T09:07:32.901Z,737.08
2016-08-05T09:08:32.895Z,737.12
2016-08-05T09:09:32.883Z,737.16
2016-08-05T09:10:32.864Z,737.13
2016-08-05T09:11:32.852Z,737.12
2016-08-05T09:12:32.841Z,737.05
2016-08-05T09:13:32.833Z,737.07
2016-08-05T09:14:32.816Z,737.05
2016-08-05T09:15:32.811Z,737.07
2016-08-05T09:16:32.798Z,737.06
2016-08-05T09:17:32.781Z,737.09
2016-08-05T09:18:32.767Z,737.12
2016-08-05T09:19:32.756Z,737.17
2016-08-05T09:20:32.751Z,737.18
2016-08-05T09:21:32.737Z,737.2
2016-08-05T09:22:32.726Z,737.17
2016-08-05T09:23:32.707Z,737.18
2016-08-05T09:24:32.694Z,737.21
2016-08-05T09:25:32.682Z,737.22
2016-08-05T09:26:32.671Z,737.14
2016-08-05T09:27:32.666Z,737.14
2016-08-05T09:28:32.654Z,737.2
2016-08-05T09:29:32.640Z,737.19
2016-08-05T09:30:32.621Z,737.22
2016-08-05T09:31:32.617Z,737.21
2016-08-05T09:32:32.604Z,737.18
2016-08-05T09:33:32.592Z,737.22
2016-08-05T09:34:32.580Z,737.18
2016-08-05T09:35:32.567Z,737.25
2016-08-05T09:36:32.549Z,737.25
2016-08-05T09:37:32.536Z,737.29
2016-08-05T09:38:32.522Z,737.24
2016-08-05T09:39:32.518Z,737.29
2016-08-05T09:40:32.498Z,737.41
2016-08-05T09:42:32.478Z,737.43
2016-08-05T09:43:32.460Z,737.44
2016-08-05T09:44:32.455Z,737.46
2016-08-05T09:45:32.443Z,737.35
2016-08-05T09:46:32.424Z,737.46
2016-08-05T09:47:32.418Z,737.49
2016-08-05T09:48:32.398Z,737.49
2016-08-05T09:49:32.403Z,737.54
2016-08-05T09:50:32.382Z,737.49
2016-08-05T09:51:32.368Z,737.42
2016-08-05T09:52:32.356Z,737.43
2016-08-05T09:53:32.343Z,737.41
2016-08-05T09:54:32.330Z,737.35
2016-08-05T09:55:32.312Z,737.32
2016-08-05T09:57:32.288Z,737.34
2016-08-05T09:58:32.281Z,737.35
2016-08-05T09:59:32.269Z,737.34
2016-08-05T10:00:32.257Z,737.33
2016-08-05T10:01:32.238Z,737.36
2016-08-05T10:02:32.232Z,737.45
2016-08-05T10:03:32.220Z,737.44
2016-08-05T10:04:32.199Z,737.42
2016-08-05T10:05:32.195Z,737.48
2016-08-05T10:06:32.175Z,737.55
2016-08-05T10:07:32.163Z,737.63
2016-08-05T10:08:32.157Z,737.62
2016-08-05T10:09:32.143Z,737.63
2016-08-05T10:10:32.124Z,737.61
2016-08-05T10:12:32.106Z,737.56
2016-08-05T10:13:32.094Z,737.6
2016-08-05T10:14:32.086Z,737.64
2016-08-05T10:15:32.068Z,737.67
2016-08-05T10:16:32.056Z,737.74
2016-08-05T10:17:32.043Z,737.79
2016-08-05T10:18:32.030Z,737.85
2016-08-05T10:19:32.010Z,737.84
2016-08-05T10:20:31.998Z,737.9
2016-08-05T10:21:31.986Z,737.99
2016-08-05T10:22:31.973Z,738.02
2016-08-05T10:23:31.961Z,737.99
2016-08-05T10:24:31.955Z,737.95
2016-08-05T10:25:31.936Z,737.89
2016-08-05T10:27:31.921Z,737.89
2016-08-05T10:28:31.905Z,737.86
2016-08-05T10:29:31.886Z,737.89
2016-08-05T10:30:31.881Z,737.86
2016-08-05T10:31:31.866Z,737.87
2016-08-05T10:32:31.847Z,737.78
2016-08-05T10:33:31.833Z,737.76
2016-08-05T10:34:31.823Z,737.75
2016-08-05T10:35:31.810Z,737.76
2016-08-05T10:36:31.798Z,737.69
2016-08-05T10:37:31.793Z,737.77
2016-08-05T10:38:31.779Z,737.82
2016-08-05T10:39:31.767Z,737.84
2016-08-05T10:40:31.747Z,737.88
2016-08-05T10:41:31.736Z,737.88
2016-08-05T10:42:31.729Z,737.95
2016-08-05T10:43:31.709Z,737.97
2016-08-05T10:44:31.705Z,737.97
2016-08-05T10:45:31.685Z,737.88
2016-08-05T10:46:31.674Z,737.94
2016-08-05T10:47:31.669Z,737.92
2016-08-05T10:48:31.649Z,737.87
2016-08-05T10:49:31.636Z,737.78
2016-08-05T10:50:31.631Z,737.9
2016-08-05T10:51:31.620Z,737.86
2016-08-05T10:52:31.602Z,737.8
2016-08-05T10:53:31.596Z,737.88
2016-08-05T10:54:31.584Z,737.9
2016-08-05T10:55:31.572Z,737.85
2016-08-05T10:56:31.559Z,737.84
2016-08-05T10:57:31.540Z,737.83
2016-08-05T10:58:31.528Z,737.77
2016-08-05T10:59:31.523Z,737.69
2016-08-05T11:00:31.504Z,737.76
2016-08-05T11:01:31.492Z,737.77
2016-08-05T11:02:31.486Z,737.87
2016-08-05T11:03:31.466Z,737.91
2016-08-05T11:04:31.455Z,737.92
2016-08-05T11:05:31.449Z,737.98
2016-08-05T11:06:31.430Z,738.01
2016-08-05T11:07:31.423Z,738.04
2016-08-05T11:08:31.411Z,738.1
2016-08-05T11:09:31.392Z,738.03
2016-08-05T11:10:31.380Z,738.08
2016-08-05T11:11:31.375Z,738.09
2016-08-05T11:12:31.363Z,738.08
2016-08-05T11:13:31.350Z,738.21
2016-08-05T11:14:31.339Z,738.16
2016-08-05T11:15:31.325Z,738.24
2016-08-05T11:16:31.306Z,738.24
2016-08-05T11:17:31.294Z,738.22
2016-08-05T11:18:31.289Z,738.22
2016-08-05T11:19:31.276Z,738.21
2016-08-05T11:20:31.265Z,738.18
2016-08-05T11:21:31.252Z,738.2
2016-08-05T11:22:31.244Z,738.27
2016-08-05T11:23:31.219Z,738.27
2016-08-05T11:24:31.215Z,738.34
2016-08-05T11:25:31.204Z,738.31
2016-08-05T11:26:31.191Z,738.32
2016-08-05T11:27:31.178Z,738.36
2016-08-05T11:28:31.159Z,738.33
2016-08-05T11:29:31.153Z,738.32
2016-08-05T11:30:31.141Z,738.3
2016-08-05T11:31:31.122Z,738.35
2016-08-05T11:32:31.118Z,738.38
2016-08-05T11:33:31.105Z,738.38
2016-08-05T11:34:31.093Z,738.39
2016-08-05T11:35:31.081Z,738.4
2016-08-05T11:36:31.063Z,738.45
2016-08-05T11:37:31.057Z,738.43
2016-08-05T11:38:31.045Z,738.42
2016-08-05T11:39:31.033Z,738.45
2016-08-05T11:40:31.021Z,738.47
2016-08-05T11:41:31.003Z,738.44
2016-08-05T11:42:30.989Z,738.44
2016-08-05T11:43:30.977Z,738.45
2016-08-05T11:44:30.972Z,738.5
2016-08-05T11:45:30.954Z,738.53
2016-08-05T11:46:30.949Z,738.49
2016-08-05T11:47:30.929Z,738.52
2016-08-05T11:48:30.924Z,738.55
2016-08-05T11:49:30.906Z,738.59
2016-08-05T11:50:30.901Z,738.53
2016-08-05T11:51:30.888Z,738.44
2016-08-05T11:52:30.877Z,738.45
2016-08-05T11:53:30.863Z,738.46
2016-08-05T11:54:30.854Z,738.45
2016-08-05T11:55:30.836Z,738.47
2016-08-05T11:56:30.823Z,738.57
2016-08-05T11:57:30.812Z,738.52
2016-08-05T11:58:30.802Z,738.51
2016-08-05T11:59:30.790Z,738.46
2016-08-05T12:00:30.781Z,738.47
2016-08-05T12:01:30.772Z,738.47
2016-08-05T12:02:30.752Z,738.49
2016-08-05T12:03:30.749Z,738.45
2016-08-05T12:04:30.729Z,738.49
2016-08-05T12:05:30.719Z,738.52
2016-08-05T12:06:30.713Z,738.54
2016-08-05T12:07:30.703Z,738.56
2016-08-05T12:08:30.684Z,738.61
2016-08-05T12:09:30.673Z,738.6
2016-08-05T12:10:30.668Z,738.66
2016-08-05T12:11:30.651Z,738.65
2016-08-05T12:12:30.640Z,738.72
2016-08-05T12:13:30.634Z,738.76
2016-08-05T12:14:30.623Z,738.74
2016-08-05T12:15:30.612Z,738.72
2016-08-05T12:16:30.594Z,738.71
2016-08-05T12:17:30.593Z,738.73
2016-08-05T12:18:30.572Z,738.7
2016-08-05T12:19:30.562Z,738.71
2016-08-05T12:20:30.548Z,738.75
2016-08-05T12:21:30.538Z,738.77
2016-08-05T12:22:30.526Z,738.89
2016-08-05T12:23:30.523Z,738.89
2016-08-05T12:24:30.504Z,738.92
2016-08-05T12:25:30.494Z,738.86
2016-08-05T12:26:30.481Z,738.92
2016-08-05T12:27:30.477Z,738.88
2016-08-05T12:28:30.465Z,738.85
2016-08-05T12:29:30.447Z,738.89
2016-08-05T12:30:30.443Z,738.95
2016-08-05T12:31:30.431Z,738.92
2016-08-05T12:32:30.413Z,738.93
2016-08-05T12:33:30.409Z,738.91
2016-08-05T12:34:30.399Z,738.96
2016-08-05T12:35:30.386Z,738.97
2016-08-05T12:36:30.375Z,738.95
2016-08-05T12:37:30.365Z,738.93
2016-08-05T12:38:30.354Z,738.93
2016-08-05T12:39:30.335Z,738.91
2016-08-05T12:40:30.324Z,738.9
2016-08-05T12:41:30.312Z,738.85
2016-08-05T12:42:30.300Z,738.82